Time;durP1;ratioP1;P1;durP2;ratioP2;P2;SDS_P1;SDS_P2;PMS_P1;PMS_P2;Temp;Humidity;BMP_temperature;BMP_pressure;BME280_temperature;BME280_humidity;BME280_pressure;Samples;Min_cycle;Max_cycle;Signal;HPM_P1;HPM_P2
2023/02/14 00:01:23;;;;;;;2.17;0.82;;;;;;;6.23;60.97;101653.47;4376260;32;34436;-84
2023/02/14 00:03:51;;;;;;;0.30;0.30;;;;;;;6.15;61.22;101653.41;4394081;32;33517;-84
2023/02/14 00:06:19;;;;;;;0.55;0.55;;;;;;;6.06;61.06;101654.25;4379601;32;33360;-85
2023/02/14 00:08:46;;;;;;;4.15;0.88;;;;;;;6.02;61.49;101654.22;4381171;32;33104;-85
2023/02/14 00:11:14;;;;;;;1.30;1.20;;;;;;;6.13;61.01;101652.56;4381146;32;32791;-84
2023/02/14 00:15:20;;;;;;;0.82;0.82;;;;;;;6.55;59.76;101656.16;4385117;32;33313;-84
2023/02/14 00:16:31;;;;;;;0.50;0.50;;;;;;;6.52;59.33;101656.19;4392243;32;35190;-84
2023/02/14 00:19:04;;;;;;;1.55;0.22;;;;;;;6.38;59.32;101648.25;4394367;32;34214;-84
2023/02/14 00:21:35;;;;;;;0.45;0.45;;;;;;;6.33;59.26;101656.13;4377882;32;33674;-85
2023/02/14 00:24:04;;;;;;;0.88;0.88;;;;;;;6.37;59.09;101646.50;4375633;32;33359;-84
2023/02/14 00:26:32;;;;;;;1.65;0.70;;;;;;;6.36;59.01;101643.03;4385541;32;33987;-84
2023/02/14 00:29:00;;;;;;;0.73;0.73;;;;;;;6.29;59.38;101642.97;4382183;32;33611;-84
2023/02/14 00:31:27;;;;;;;1.73;1.33;;;;;;;6.34;58.98;101643.87;4380884;32;33632;-84
2023/02/14 00:33:55;;;;;;;1.33;0.98;;;;;;;6.26;59.17;101654.31;4383828;32;32276;-84
2023/02/14 00:36:23;;;;;;;0.57;0.57;;;;;;;6.20;59.16;101646.44;4376701;32;32668;-84
2023/02/14 00:38:51;;;;;;;0.28;0.28;;;;;;;6.08;59.56;101644.66;4396105;32;32788;-84
2023/02/14 00:41:18;;;;;;;0.57;0.57;;;;;;;6.00;60.46;101648.13;4380762;32;32775;-84
2023/02/14 00:43:51;;;;;;;0.98;0.73;;;;;;;5.71;62.00;101647.94;4380614;32;32126;-84
2023/02/14 00:46:21;;;;;;;1.12;1.00;;;;;;;5.89;62.20;101643.66;4375539;32;34229;-84
2023/02/14 00:48:49;;;;;;;0.55;0.55;;;;;;;5.90;62.30;101644.53;4380161;32;34408;-84
2023/02/14 00:51:18;;;;;;;6.87;2.28;;;;;;;5.84;62.75;101641.88;4383328;32;33895;-84
2023/02/14 00:53:47;;;;;;;0.57;0.57;;;;;;;5.94;62.66;101645.47;4375797;32;34262;-84
2023/02/14 00:56:17;;;;;;;1.35;1.25;;;;;;;5.72;63.21;101647.94;4381569;32;33147;-85
2023/02/14 00:58:44;;;;;;;8.73;1.60;;;;;;;5.82;63.09;101649.75;4373041;32;33072;-84
2023/02/14 01:01:13;;;;;;;1.55;0.93;;;;;;;5.93;63.06;101643.69;4382283;32;34638;-84
2023/02/14 01:03:42;;;;;;;1.02;1.02;;;;;;;6.05;63.00;101646.38;4376988;32;33445;-84
2023/02/14 01:06:10;;;;;;;2.85;1.23;;;;;;;6.14;62.48;101636.81;4388367;32;32476;-84
2023/02/14 01:08:37;;;;;;;0.95;0.95;;;;;;;6.44;61.78;101642.16;4381816;32;140883;-83
2023/02/14 01:11:20;;;;;;;0.10;0.10;;;;;;;6.74;60.80;101630.81;4393459;32;32800;-83
2023/02/14 01:13:48;;;;;;;0.22;0.22;;;;;;;6.14;62.46;101633.31;4377194;32;33212;-83
2023/02/14 01:16:19;;;;;;;3.12;0.95;;;;;;;6.20;62.79;101620.22;4376661;32;34348;-83
2023/02/14 01:18:47;;;;;;;0.65;0.65;;;;;;;6.31;62.30;101626.34;4381740;32;33342;-83
2023/02/14 01:21:24;;;;;;;0.95;0.82;;;;;;;6.37;61.78;101620.28;4376002;32;32640;-83
2023/02/14 01:23:54;;;;;;;0.93;0.93;;;;;;;6.54;61.58;101622.91;4383487;32;33406;-83
2023/02/14 01:26:23;;;;;;;1.65;0.95;;;;;;;6.49;62.02;101620.28;4380217;32;32469;-84
2023/02/14 01:28:50;;;;;;;0.85;0.55;;;;;;;6.47;61.95;101613.31;4378231;32;33706;-83
2023/02/14 01:31:27;;;;;;;0.60;0.60;;;;;;;6.49;61.86;101604.53;4386145;32;33483;-85
2023/02/14 01:33:57;;;;;;;1.23;1.23;;;;;;;6.32;62.25;101607.16;4395477;32;33482;-84
2023/02/14 01:36:34;;;;;;;0.08;0.08;;;;;;;6.42;61.98;101608.03;4382058;32;33911;-85
2023/02/14 01:39:07;;;;;;;1.23;0.98;;;;;;;6.65;61.24;101600.22;4381933;32;34471;-85
2023/02/14 01:41:37;;;;;;;0.10;0.10;;;;;;;6.67;61.26;101594.06;4377413;32;34047;-85
2023/02/14 01:44:14;;;;;;;1.37;1.30;;;;;;;6.50;61.85;101598.41;4374657;32;32626;-84
2023/02/14 01:46:43;;;;;;;0.65;0.65;;;;;;;6.65;60.84;101600.22;4381201;32;33555;-85
2023/02/14 01:49:24;;;;;;;2.12;1.90;;;;;;;6.36;61.85;101598.41;4388327;32;34439;-84
2023/02/14 01:52:00;;;;;;;1.45;1.35;;;;;;;6.49;61.69;101603.66;4376433;32;32776;-84
2023/02/14 01:54:32;;;;;;;1.42;1.37;;;;;;;6.60;61.30;101597.59;4392385;32;33384;-83
2023/02/14 01:57:03;;;;;;;1.35;1.30;;;;;;;6.61;61.21;101596.69;4367907;32;32454;-84
2023/02/14 01:59:34;;;;;;;0.57;0.57;;;;;;;6.99;59.87;101605.47;4382085;32;33942;-84
2023/02/14 02:02:04;;;;;;;1.45;1.35;;;;;;;6.82;60.29;101602.84;4382520;32;33610;-84
2023/02/14 02:04:36;;;;;;;0.35;0.35;;;;;;;6.68;60.59;101594.94;4380747;32;33685;-83
2023/02/14 02:07:09;;;;;;;0.62;0.62;;;;;;;6.41;61.39;101596.69;4381161;32;33671;-85
2023/02/14 02:09:42;;;;;;;0.90;0.90;;;;;;;6.34;61.90;101599.28;4375661;32;34774;-85
2023/02/14 02:12:10;;;;;;;0.20;0.20;;;;;;;6.68;60.78;101593.19;4382715;32;33982;-85
2023/02/14 02:14:39;;;;;;;0.55;0.52;;;;;;;6.70;60.46;101593.22;4370754;32;33983;-85
2023/02/14 02:17:26;;;;;;;1.65;0.75;;;;;;;6.83;60.11;101589.69;4380121;32;34542;-85
2023/02/14 02:20:39;;;;;;;4.85;2.17;;;;;;;6.68;60.06;101593.19;4382317;32;34107;-85
2023/02/14 02:23:16;;;;;;;4.18;2.80;;;;;;;6.79;59.86;101587.97;4375994;32;33985;-85
2023/02/14 02:26:08;;;;;;;0.08;0.08;;;;;;;6.81;59.81;101580.09;4395334;32;31983;-85
2023/02/14 02:28:54;;;;;;;1.60;0.75;;;;;;;6.69;60.11;101578.31;4394309;32;33843;-85
2023/02/14 02:31:44;;;;;;;0.90;0.90;;;;;;;6.30;60.50;101572.13;4391553;32;33781;-86
2023/02/14 02:34:24;;;;;;;0.75;0.75;;;;;;;6.48;60.87;101573.06;4377501;32;35036;-84
2023/02/14 02:37:16;;;;;;;0.10;0.10;;;;;;;6.59;60.26;101568.69;4394063;32;33344;-84
2023/02/14 02:39:54;;;;;;;1.02;0.85;;;;;;;6.50;60.66;101573.94;4395234;32;33500;-83
2023/02/14 02:42:34;;;;;;;5.93;1.87;;;;;;;6.62;60.24;101574.81;4382687;32;33660;-84
2023/02/14 02:45:27;;;;;;;0.20;0.20;;;;;;;6.84;59.36;101575.72;4383754;32;32576;-86
2023/02/14 02:48:14;;;;;;;;;;;;;;;6.74;59.67;101578.31;4380931;32;32430;-83
2023/02/14 02:53:35;;;;;;;;;;;;;;;6.58;60.21;101572.19;4392896;32;33857;-83
2023/02/14 02:59:17;;;;;;;1.58;1.25;;;;;;;6.24;60.79;101571.25;4381925;32;33042;-83
2023/02/14 03:01:55;;;;;;;3.10;1.95;;;;;;;6.43;60.55;101573.06;4375952;32;34256;-82
2023/02/14 03:09:59;;;;;;;0.45;0.45;;;;;;;6.51;60.22;101570.44;4383243;32;33179;-82
2023/02/14 03:12:41;;;;;;;2.03;1.92;;;;;;;6.35;60.76;101570.41;4380845;32;32808;-83
2023/02/14 03:15:26;;;;;;;5.93;1.17;;;;;;;6.31;60.51;101568.63;4394855;32;32659;-83
2023/02/14 03:21:32;;;;;;;0.22;0.22;;;;;;;6.11;61.25;101571.22;4393588;32;31965;-85
2023/02/14 03:24:10;;;;;;;0.80;0.45;;;;;;;5.92;61.17;101573.78;4394244;32;32428;-85
2023/02/14 03:26:48;;;;;;;0.08;0.08;;;;;;;5.97;60.93;101569.44;4385503;32;32271;-85
2023/02/14 03:29:17;;;;;;;2.37;1.98;;;;;;;6.06;60.46;101577.34;4382528;32;33715;-84
2023/02/14 03:31:57;;;;;;;0.95;0.95;;;;;;;5.94;60.83;101567.69;4396539;32;32339;-85
2023/02/14 03:34:33;;;;;;;1.55;1.33;;;;;;;5.53;62.03;101570.97;4377711;32;33530;-85
2023/02/14 03:37:09;;;;;;;0.20;0.20;;;;;;;5.44;62.71;101575.28;4397158;32;32304;-85
2023/02/14 03:39:58;;;;;;;0.68;0.68;;;;;;;5.75;61.72;101574.56;4395551;32;34444;-85
2023/02/14 03:42:31;;;;;;;0.20;0.20;;;;;;;5.64;61.95;101579.75;4384806;32;32362;-84
2023/02/14 03:45:00;;;;;;;0.98;0.98;;;;;;;5.65;61.53;101578.03;4377201;32;34261;-85
2023/02/14 03:47:31;;;;;;;0.57;0.57;;;;;;;5.55;61.58;101574.44;4384145;32;33042;-84
2023/02/14 03:50:04;;;;;;;1.65;1.20;;;;;;;5.58;61.50;101581.47;4382403;32;33279;-83
2023/02/14 03:52:33;;;;;;;0.80;0.80;;;;;;;5.38;62.08;101577.00;4371314;32;33090;-83
2023/02/14 03:55:02;;;;;;;1.05;1.05;;;;;;;5.26;62.68;101579.53;4390858;32;33838;-87
2023/02/14 03:57:59;;;;;;;0.75;0.75;;;;;;;5.23;63.01;101586.50;4382876;32;33611;-86
2023/02/14 04:00:29;;;;;;;0.80;0.80;;;;;;;5.31;62.68;101575.19;4391112;32;32779;-85
2023/02/14 04:03:01;;;;;;;3.15;2.08;;;;;;;5.30;63.04;101578.69;4369397;32;34157;-84
2023/02/14 04:05:29;;;;;;;1.23;0.65;;;;;;;5.08;63.74;101589.87;4377324;32;34826;-83
2023/02/14 04:07:58;;;;;;;0.30;0.30;;;;;;;5.23;63.34;101582.16;4375266;32;33350;-83
2023/02/14 04:10:26;;;;;;;1.37;1.27;;;;;;;5.13;63.42;101582.94;4382163;32;33220;-84
2023/02/14 04:12:53;;;;;;;3.00;2.22;;;;;;;5.03;64.27;101578.50;4381155;32;33297;-84
2023/02/14 04:15:21;;;;;;;1.35;0.77;;;;;;;5.02;65.00;101580.22;4378775;32;32602;-84
2023/02/14 04:20:36;;;;;;;3.60;2.28;;;;;;;5.38;64.44;101581.38;4387836;32;34014;-82
2023/02/14 04:23:03;;;;;;;3.62;0.73;;;;;;;5.29;64.62;101566.47;4394002;32;32645;-85
2023/02/14 04:25:33;;;;;;;0.65;0.65;;;;;;;5.16;64.81;101562.00;4393482;32;33438;-85
2023/02/14 04:28:01;;;;;;;1.08;1.08;;;;;;;5.25;65.14;101559.44;4382993;32;34821;-86
2023/02/14 04:30:29;;;;;;;2.33;2.05;;;;;;;5.19;65.27;101553.31;4381351;32;33953;-86
2023/02/14 04:32:56;;;;;;;0.60;0.60;;;;;;;5.25;65.21;101556.81;4383448;32;33269;-86
2023/02/14 04:35:24;;;;;;;6.22;3.60;;;;;;;5.22;65.42;101550.69;4373161;32;34254;-86
2023/02/14 04:37:52;;;;;;;0.40;0.40;;;;;;;5.18;65.65;101554.19;4382942;32;32951;-85
2023/02/14 04:40:20;;;;;;;0.70;0.70;;;;;;;5.48;64.64;101558.72;4368612;32;33512;-85
2023/02/14 04:42:48;;;;;;;0.65;0.65;;;;;;;5.42;64.84;101577.03;4393370;32;34104;-85
2023/02/14 04:45:16;;;;;;;1.70;1.00;;;;;;;5.42;64.72;101566.53;4394165;32;34302;-85
2023/02/14 04:47:44;;;;;;;0.30;0.30;;;;;;;5.42;64.77;101574.41;4382026;32;33582;-84
2023/02/14 04:50:12;;;;;;;3.72;1.95;;;;;;;5.48;64.55;101566.56;4385713;32;32827;-85
2023/02/14 04:52:40;;;;;;;2.17;2.08;;;;;;;5.63;64.13;101566.63;4382292;32;32657;-85
2023/02/14 04:55:09;;;;;;;1.37;1.27;;;;;;;5.83;63.41;101554.47;4385552;32;34169;-84
2023/02/14 04:57:36;;;;;;;0.47;0.47;;;;;;;5.94;62.90;101567.69;4396323;32;32117;-83
2023/02/14 05:00:05;;;;;;;3.03;1.58;;;;;;;6.20;61.69;101566.88;4381252;32;34158;-84
2023/02/14 05:02:33;;;;;;;0.43;0.43;;;;;;;6.01;62.03;101552.84;4371596;32;31756;-83
2023/02/14 05:05:00;;;;;;;0.22;0.22;;;;;;;5.96;62.31;101549.34;4383767;32;31868;-83
2023/02/14 05:07:28;;;;;;;0.70;0.70;;;;;;;6.09;61.80;101546.75;4369000;32;33588;-84
2023/02/14 05:09:56;;;;;;;0.75;0.75;;;;;;;6.22;61.35;101542.41;4382138;32;31654;-83
2023/02/14 05:12:24;;;;;;;1.12;1.12;;;;;;;6.12;61.46;101545.87;4395058;32;33193;-83
2023/02/14 05:14:52;;;;;;;0.98;0.80;;;;;;;6.00;61.87;101556.34;4381216;32;33467;-83
2023/02/14 05:17:19;;;;;;;1.75;1.48;;;;;;;6.19;60.90;101546.78;4379625;32;33026;-83
2023/02/14 05:19:47;;;;;;;4.07;2.28;;;;;;;6.25;59.70;101560.78;4381758;32;33435;-84
2023/02/14 05:22:14;;;;;;;2.28;0.73;;;;;;;6.04;60.25;101552.88;4383519;32;32352;-83
2023/02/14 05:24:44;;;;;;;0.35;0.35;;;;;;;6.09;60.18;101557.25;4375403;32;33994;-84
2023/02/14 05:27:12;;;;;;;0.68;0.68;;;;;;;5.82;60.96;101551.87;4396668;32;34650;-83
2023/02/14 05:29:40;;;;;;;1.27;0.70;;;;;;;5.83;61.66;101554.47;4381846;32;33814;-83
2023/02/14 05:32:08;;;;;;;1.17;0.88;;;;;;;5.82;61.95;101555.37;4381299;32;33113;-83
2023/02/14 05:34:35;;;;;;;1.50;1.48;;;;;;;5.63;62.86;101566.63;4375739;32;32945;-83
2023/02/14 05:37:03;;;;;;;1.40;1.30;;;;;;;5.39;63.62;101560.41;4394460;32;33205;-83
2023/02/14 05:39:30;;;;;;;1.58;1.30;;;;;;;5.47;63.58;101565.69;4379823;32;34702;-83
2023/02/14 05:41:58;;;;;;;1.60;1.50;;;;;;;5.65;62.90;101559.69;4371826;32;33181;-84
2023/02/14 05:44:26;;;;;;;0.70;0.70;;;;;;;5.54;63.54;101561.34;4377646;32;32415;-85
2023/02/14 05:46:54;;;;;;;1.17;1.15;;;;;;;5.65;63.23;101564.91;4376264;32;33148;-84
2023/02/14 05:49:21;;;;;;;2.85;2.60;;;;;;;5.57;63.43;101566.63;4395436;32;33484;-84
2023/02/14 05:51:49;;;;;;;1.12;0.65;;;;;;;5.52;63.93;101574.47;4393873;32;33690;-84
2023/02/14 05:54:17;;;;;;;0.22;0.22;;;;;;;5.58;63.49;101574.47;4379640;32;34208;-82
2023/02/14 05:56:45;;;;;;;1.30;1.20;;;;;;;5.83;62.67;101575.47;4356164;32;33053;-82
2023/02/14 05:59:13;;;;;;;6.55;1.20;;;;;;;5.79;62.68;101573.72;4393494;32;33558;-82
2023/02/14 06:01:40;;;;;;;2.20;2.10;;;;;;;5.92;62.19;101576.41;4374354;32;33481;-82
2023/02/14 06:04:09;;;;;;;1.33;1.33;;;;;;;5.93;62.01;101570.28;4381023;32;33252;-82
2023/02/14 06:06:36;;;;;;;1.73;1.62;;;;;;;6.01;61.93;101571.19;4372169;32;34779;-82
2023/02/14 06:09:04;;;;;;;1.62;1.52;;;;;;;6.26;60.96;101570.38;4382407;32;34124;-82
2023/02/14 06:11:32;;;;;;;2.08;1.98;;;;;;;6.03;61.59;101577.31;4381953;32;31006;-82
2023/02/14 06:13:59;;;;;;;1.48;1.37;;;;;;;5.95;61.75;101568.56;4379992;32;33974;-82
2023/02/14 06:16:27;;;;;;;1.20;1.15;;;;;;;6.00;61.68;101578.19;4379218;32;32924;-82
2023/02/14 06:18:55;;;;;;;4.40;2.05;;;;;;;5.94;62.18;101579.94;4380141;32;33543;-82
2023/02/14 06:21:22;;;;;;;0.93;0.93;;;;;;;6.13;61.68;101573.88;4377311;32;31802;-82
2023/02/14 06:23:50;;;;;;;3.80;1.60;;;;;;;6.30;60.80;101572.13;4370712;32;32524;-82
2023/02/14 06:26:18;;;;;;;1.60;1.52;;;;;;;6.15;61.35;101578.22;4380580;32;34356;-82
2023/02/14 06:28:45;;;;;;;3.95;1.02;;;;;;;6.13;61.39;101589.59;4371051;32;34568;-83
2023/02/14 06:31:16;;;;;;;0.15;0.15;;;;;;;6.30;61.00;101593.13;4367783;32;32437;-83
2023/02/14 06:33:44;;;;;;;1.33;1.33;;;;;;;6.28;61.06;101587.03;4381574;32;32823;-83
2023/02/14 06:36:11;;;;;;;1.60;1.50;;;;;;;6.03;61.69;101590.41;4397386;32;32977;-84
2023/02/14 06:38:40;;;;;;;1.80;1.42;;;;;;;6.03;61.93;101593.94;4381999;32;35022;-83
2023/02/14 06:41:09;;;;;;;1.87;1.73;;;;;;;6.14;61.51;101596.59;4382173;32;32244;-84
2023/02/14 06:43:37;;;;;;;1.87;0.88;;;;;;;6.06;61.82;101601.81;4362772;32;33571;-84
2023/02/14 06:46:05;;;;;;;2.25;1.75;;;;;;;6.25;60.88;101601.88;4377800;32;33926;-84
2023/02/14 06:48:33;;;;;;;1.55;1.25;;;;;;;6.26;61.28;101607.09;4380001;32;33560;-83
2023/02/14 06:51:08;;;;;;;2.20;1.58;;;;;;;6.35;60.82;101609.75;4384101;32;31168;-84
2023/02/14 06:53:37;;;;;;;0.28;0.28;;;;;;;6.55;60.23;101608.91;4377444;32;33833;-84
2023/02/14 06:56:05;;;;;;;2.15;1.95;;;;;;;6.56;60.23;101611.56;4371023;32;32736;-84
2023/02/14 06:58:32;;;;;;;0.88;0.88;;;;;;;6.68;59.86;101611.56;4383692;32;33183;-84
2023/02/14 07:01:00;;;;;;;1.73;1.15;;;;;;;6.70;60.11;101614.22;4383041;32;31996;-85
2023/02/14 07:03:28;;;;;;;1.08;1.02;;;;;;;6.77;59.78;101610.72;4382636;32;34095;-86
2023/02/14 07:05:57;;;;;;;1.87;0.85;;;;;;;6.44;60.54;101614.16;4370707;32;33793;-85
2023/02/14 07:08:25;;;;;;;0.10;0.10;;;;;;;6.47;60.69;101618.56;4379271;32;33201;-85
2023/02/14 07:10:56;;;;;;;0.77;0.77;;;;;;;6.74;60.12;101610.72;4366748;32;33800;-86
2023/02/14 07:13:25;;;;;;;;;;;;;;;6.95;59.57;101619.47;4376101;32;33165;-86
2023/02/14 07:15:52;;;;;;;0.93;0.93;;;;;;;7.14;59.01;101613.34;4395109;32;32265;-85
2023/02/14 07:18:20;;;;;;;1.85;1.10;;;;;;;7.17;59.02;101610.72;4385704;32;34154;-86
2023/02/14 07:20:49;;;;;;;2.78;2.20;;;;;;;7.17;59.21;101608.97;4382285;32;32353;-85
2023/02/14 07:23:17;;;;;;;0.57;0.50;;;;;;;7.42;58.59;101609.81;4381381;32;34281;-85
2023/02/14 07:25:44;;;;;;;0.47;0.47;;;;;;;7.41;58.70;101612.44;4383741;32;32089;-86
2023/02/14 07:28:12;;;;;;;0.55;0.55;;;;;;;7.44;58.54;101610.66;4383141;32;33984;-86
2023/02/14 07:30:40;;;;;;;6.55;2.85;;;;;;;7.38;58.90;101621.19;4396040;32;32052;-86
2023/02/14 07:33:08;;;;;;;0.45;0.45;;;;;;;7.67;58.47;101612.38;4375903;32;33455;-86
2023/02/14 07:35:36;;;;;;;1.00;0.93;;;;;;;7.33;59.24;101628.22;4396021;32;33953;-85
2023/02/14 07:38:03;;;;;;;1.58;1.48;;;;;;;7.24;59.62;101624.72;4381203;32;33840;-86
2023/02/14 07:40:31;;;;;;;0.80;0.80;;;;;;;7.72;58.54;101626.37;4393732;32;31852;-86
2023/02/14 07:42:59;;;;;;;0.22;0.22;;;;;;;8.22;56.79;101622.69;4386606;32;32018;-86
2023/02/14 07:45:27;;;;;;;0.28;0.28;;;;;;;8.26;56.78;101629.69;4386760;32;33956;-86
2023/02/14 07:47:55;;;;;;;1.45;1.35;;;;;;;8.39;56.36;101620.84;4387307;32;32170;-86
2023/02/14 07:50:23;;;;;;;0.47;0.47;;;;;;;8.61;55.24;101624.25;4383567;32;33166;-86
2023/02/14 07:52:50;;;;;;;0.65;0.65;;;;;;;8.37;56.17;101624.41;4374424;32;32017;-86
2023/02/14 07:55:20;;;;;;;3.03;1.75;;;;;;;8.28;56.51;101633.19;4385492;32;33887;-86
2023/02/14 07:57:51;;;;;;;1.92;1.80;;;;;;;8.27;56.51;101634.06;4385527;32;33380;-86
2023/02/14 08:00:19;;;;;;;3.15;2.70;;;;;;;8.75;55.00;101626.78;4389422;32;33061;-86
2023/02/14 08:02:48;;;;;;;0.88;0.80;;;;;;;8.67;55.34;101632.09;4383923;32;33683;-86
2023/02/14 08:05:16;;;;;;;0.70;0.70;;;;;;;8.69;55.23;101640.00;4396695;32;33818;-86
2023/02/14 08:07:45;;;;;;;1.95;1.85;;;;;;;8.72;55.29;101635.56;4385804;32;33598;-86
2023/02/14 08:10:13;;;;;;;1.15;0.73;;;;;;;8.98;54.03;101630.13;4399285;32;33428;-86
2023/02/14 08:12:59;;;;;;;1.23;1.23;;;;;;;8.87;53.89;101631.94;4384054;32;33108;-86
2023/02/14 08:18:19;;;;;;;0.30;0.30;;;;;;;8.68;54.17;101632.97;4372947;32;32877;-86
2023/02/14 08:20:51;;;;;;;2.72;2.17;;;;;;;9.04;53.56;101636.22;4396932;32;33744;-86
2023/02/14 08:23:19;;;;;;;1.83;1.25;;;;;;;8.91;53.34;101636.31;4382280;32;34493;-86
2023/02/14 08:25:48;;;;;;;0.47;0.35;;;;;;;8.79;53.18;101630.28;4384284;32;32985;-87
2023/02/14 08:28:17;;;;;;;1.98;1.20;;;;;;;8.75;53.67;101628.56;4386749;32;34643;-86
2023/02/14 08:30:44;;;;;;;1.00;1.00;;;;;;;9.23;52.70;101635.19;4386400;32;33940;-86
2023/02/14 08:33:12;;;;;;;2.80;2.10;;;;;;;9.59;52.68;101625.16;4373812;32;34225;-86
2023/02/14 08:35:40;;;;;;;3.03;1.77;;;;;;;9.25;54.00;101630.75;4382817;32;34747;-87
2023/02/14 08:38:08;;;;;;;0.45;0.45;;;;;;;9.42;53.46;101642.03;4395751;32;34589;-86
2023/02/14 08:40:36;;;;;;;2.65;0.70;;;;;;;9.43;52.22;101635.88;4366100;32;33953;-86
2023/02/14 08:43:05;;;;;;;1.00;0.80;;;;;;;9.37;52.99;101635.94;4382845;32;34579;-86
2023/02/14 08:45:33;;;;;;;1.25;0.95;;;;;;;9.52;52.23;101640.19;4376012;32;33834;-86
2023/02/14 08:48:03;;;;;;;0.30;0.30;;;;;;;9.70;52.52;101634.72;4383193;32;33137;-86
2023/02/14 08:50:30;;;;;;;0.40;0.40;;;;;;;9.67;51.40;101628.59;4370635;32;32940;-86
2023/02/14 08:52:58;;;;;;;0.85;0.85;;;;;;;9.98;50.53;101637.06;4383554;32;32845;-86
2023/02/14 08:55:26;;;;;;;7.00;2.15;;;;;;;10.00;51.46;101624.69;4382997;32;33467;-86
2023/02/14 08:57:56;;;;;;;6.72;1.48;;;;;;;10.11;52.55;101619.28;4383352;32;33216;-86
2023/02/14 09:00:24;;;;;;;3.00;1.35;;;;;;;10.29;51.15;101629.63;4382393;32;32961;-86
2023/02/14 09:02:52;;;;;;;2.97;2.20;;;;;;;10.48;49.04;101623.19;4384946;32;34229;-86
2023/02/14 09:05:22;;;;;;;0.52;0.50;;;;;;;10.68;49.35;101620.28;4384892;32;33946;-86
2023/02/14 09:07:50;;;;;;;3.67;1.62;;;;;;;11.02;49.49;101625.91;4384120;32;33605;-86
2023/02/14 09:10:18;;;;;;;0.95;0.95;;;;;;;10.56;50.34;101624.88;4383680;32;31910;-86
2023/02/14 09:12:45;;;;;;;0.35;0.35;;;;;;;11.03;48.50;101619.72;4384438;32;32701;-86
2023/02/14 09:15:13;;;;;;;1.20;1.10;;;;;;;11.04;48.39;101620.59;4380862;32;33740;-86
2023/02/14 09:17:41;;;;;;;1.10;0.77;;;;;;;10.93;48.72;101626.06;4383963;32;33712;-87
2023/02/14 09:20:11;;;;;;;1.42;0.98;;;;;;;11.08;48.59;101629.34;4381276;32;34058;-87
2023/02/14 09:22:38;;;;;;;1.95;1.42;;;;;;;10.94;48.88;101629.56;4384519;32;33813;-86
2023/02/14 09:25:06;;;;;;;6.20;2.12;;;;;;;10.69;49.74;101635.25;4393796;32;33626;-86
2023/02/14 09:27:34;;;;;;;1.20;1.00;;;;;;;10.86;49.50;101634.97;4380707;32;34384;-86
2023/02/14 09:30:04;;;;;;;1.40;0.82;;;;;;;10.71;49.46;101637.84;4380886;32;33174;-86
2023/02/14 09:32:32;;;;;;;1.70;1.60;;;;;;;10.92;49.53;101636.63;4382453;32;33073;-87
2023/02/14 09:37:46;;;;;;;1.00;0.85;;;;;;;11.22;48.41;101624.69;4374183;32;33320;-86
2023/02/14 09:40:16;;;;;;;1.45;1.35;;;;;;;11.09;48.57;101633.72;4385175;32;32361;-86
2023/02/14 09:43:29;;;;;;;1.23;1.17;;;;;;;11.02;48.95;101628.56;4394173;32;33899;-86
2023/02/14 09:46:01;;;;;;;6.43;1.83;;;;;;;10.84;49.47;101636.78;4394036;32;33757;-87
2023/02/14 09:48:33;;;;;;;1.50;1.40;;;;;;;10.60;49.89;101647.72;4369913;32;34507;-86
2023/02/14 09:51:06;;;;;;;3.72;1.95;;;;;;;11.18;48.61;101634.44;4385045;32;32953;-86
2023/02/14 09:53:47;;;;;;;1.10;1.00;;;;;;;10.86;48.34;101642.03;4397859;32;33559;-87
2023/02/14 09:56:25;;;;;;;1.55;1.45;;;;;;;10.60;49.06;101645.06;4379958;32;34480;-87
2023/02/14 09:59:03;;;;;;;2.55;2.20;;;;;;;10.58;49.56;101646.84;4381072;32;33621;-86
2023/02/14 10:01:36;;;;;;;5.03;3.42;;;;;;;10.40;50.25;101640.94;4383607;32;32615;-86
2023/02/14 10:04:26;;;;;;;1.50;1.42;;;;;;;10.61;50.20;101646.81;4384142;32;33935;-86
2023/02/14 10:06:59;;;;;;;1.50;1.33;;;;;;;10.67;49.90;101647.59;4380958;32;34277;-86
2023/02/14 10:09:53;;;;;;;1.02;1.02;;;;;;;10.84;49.11;101639.41;4381779;32;32903;-86
2023/02/14 10:12:25;;;;;;;0.88;0.88;;;;;;;11.05;48.25;101642.59;4389625;32;34312;-86
2023/02/14 10:14:55;;;;;;;2.37;1.70;;;;;;;11.00;48.75;101632.97;4381496;32;33681;-86
2023/02/14 10:17:44;;;;;;;2.22;2.03;;;;;;;11.25;48.19;101638.75;4386004;32;33922;-86
2023/02/14 10:20:20;;;;;;;2.53;2.30;;;;;;;11.66;46.06;101636.25;4396282;32;34018;-86
2023/02/14 10:23:15;;;;;;;0.57;0.57;;;;;;;11.85;44.96;101627.06;4381966;32;32851;-86
2023/02/14 10:25:47;;;;;;;2.28;2.17;;;;;;;11.75;44.85;101630.78;4395509;32;33701;-86
2023/02/14 10:28:16;;;;;;;0.55;0.55;;;;;;;11.22;46.54;101630.00;4384089;32;33617;-86
2023/02/14 10:31:00;;;;;;;1.45;1.35;;;;;;;11.14;46.86;101637.16;4382816;32;34169;-86
2023/02/14 10:33:30;;;;;;;1.70;1.15;;;;;;;11.08;46.83;101624.94;4394961;32;32432;-86
2023/02/14 10:36:03;;;;;;;0.62;0.62;;;;;;;11.76;44.92;101625.44;4381630;32;34668;-86
2023/02/14 10:38:40;;;;;;;2.35;1.42;;;;;;;11.79;46.24;101619.22;4372336;32;32461;-87
2023/02/14 10:41:29;;;;;;;1.65;1.52;;;;;;;11.68;48.12;101619.44;4397146;32;33711;-87
2023/02/14 10:44:32;;;;;;;1.45;1.35;;;;;;;11.46;47.51;101624.25;4383387;32;32943;-86
2023/02/14 10:47:06;;;;;;;1.12;1.10;;;;;;;11.94;45.23;101618.97;4374743;32;33182;-86
2023/02/14 10:49:54;;;;;;;2.75;2.05;;;;;;;12.33;44.11;101610.19;4385113;32;33950;-86
2023/02/14 10:52:24;;;;;;;1.27;1.23;;;;;;;12.75;43.10;101608.34;4391410;32;33644;-86
2023/02/14 10:54:57;;;;;;;1.37;1.30;;;;;;;12.57;44.00;101605.19;4393071;32;32437;-86
2023/02/14 10:57:29;;;;;;;3.08;2.60;;;;;;;11.52;45.27;101605.63;4382414;32;34228;-86
2023/02/14 11:00:07;;;;;;;0.90;0.90;;;;;;;12.32;43.65;101604.03;4393789;32;33009;-86
2023/02/14 11:02:41;;;;;;;0.95;0.93;;;;;;;12.30;43.71;101603.22;4368591;32;31030;-86
2023/02/14 11:05:30;;;;;;;1.42;1.20;;;;;;;11.84;45.39;101603.28;4378534;32;34014;-85
2023/02/14 11:07:58;;;;;;;4.40;1.80;;;;;;;11.89;45.32;101604.06;4379194;32;34133;-86
2023/02/14 11:10:31;;;;;;;2.17;1.95;;;;;;;12.10;43.63;101600.09;4378049;32;34883;-86
2023/02/14 11:12:59;;;;;;;0.55;0.47;;;;;;;12.43;42.88;101599.34;4391963;32;34638;-86
2023/02/14 11:15:30;;;;;;;2.05;1.12;;;;;;;12.31;43.23;101604.94;4380003;32;31455;-86
2023/02/14 11:18:22;;;;;;;1.98;1.65;;;;;;;12.25;42.80;101605.94;4381835;32;32763;-87
2023/02/14 11:21:09;;;;;;;6.43;2.28;;;;;;;11.80;44.05;101598.03;4382441;32;33753;-87
2023/02/14 11:23:44;;;;;;;1.45;1.35;;;;;;;11.56;45.55;101602.94;4389441;32;33529;-86
2023/02/14 11:26:29;;;;;;;1.52;1.42;;;;;;;11.62;45.90;101601.03;4384283;32;32582;-87
2023/02/14 11:29:01;;;;;;;1.70;1.45;;;;;;;11.70;44.89;101595.59;4372463;32;34314;-84
2023/02/14 11:31:38;;;;;;;4.32;2.62;;;;;;;11.58;44.97;101595.81;4381758;32;32796;-84
2023/02/14 11:34:35;;;;;;;0.77;0.77;;;;;;;11.68;45.16;101600.03;4392484;32;32796;-84
2023/02/14 11:37:20;;;;;;;1.02;1.02;;;;;;;11.71;45.95;101594.69;4383640;32;31637;-84
2023/02/14 11:39:49;;;;;;;4.22;1.35;;;;;;;12.23;45.82;101591.00;4392775;32;32280;-84
2023/02/14 11:42:36;;;;;;;3.60;1.70;;;;;;;12.62;42.75;101588.34;4387333;32;34056;-84
2023/02/14 11:45:04;;;;;;;0.60;0.60;;;;;;;13.18;40.68;101583.41;4380735;32;33966;-84
2023/02/14 11:47:40;;;;;;;1.60;0.98;;;;;;;13.65;38.66;101589.25;4373924;32;32470;-84
2023/02/14 11:50:23;;;;;;;1.45;1.17;;;;;;;13.30;39.24;101586.66;4375616;32;34176;-84
2023/02/14 11:52:54;;;;;;;4.28;1.10;;;;;;;12.90;40.84;101589.41;4378527;32;33933;-84
2023/02/14 11:55:29;;;;;;;1.90;1.80;;;;;;;12.56;42.12;101590.22;4371306;32;33586;-83
2023/02/14 11:57:57;;;;;;;2.05;1.27;;;;;;;12.38;42.29;101584.47;4379885;32;33382;-84
2023/02/14 12:00:30;;;;;;;6.80;1.12;;;;;;;12.54;42.48;101592.06;4377831;32;32626;-84
2023/02/14 12:03:00;;;;;;;1.87;1.40;;;;;;;12.73;42.29;101576.59;4374629;32;32740;-84
2023/02/14 12:05:43;;;;;;;3.28;2.22;;;;;;;13.29;41.49;101581.38;4380210;32;32854;-84
2023/02/14 12:08:10;;;;;;;;;;;;;;;13.41;41.24;101578.41;4394240;32;33197;-84
2023/02/14 12:10:38;;;;;;;1.30;1.20;;;;;;;14.02;39.25;101570.47;4392331;32;33682;-84
2023/02/14 12:13:09;;;;;;;3.42;2.20;;;;;;;14.03;38.66;101577.53;4374087;32;33082;-84
2023/02/14 12:15:43;;;;;;;6.80;1.62;;;;;;;14.02;39.47;101565.16;4381198;32;31185;-84
2023/02/14 12:18:20;;;;;;;1.05;0.93;;;;;;;14.21;39.33;101568.13;4395087;32;33031;-85